Time;durP1;ratioP1;P1;durP2;ratioP2;P2;SDS_P1;SDS_P2;PMS_P1;PMS_P2;Temp;Humidity;BMP_temperature;BMP_pressure;BME280_temperature;BME280_humidity;BME280_pressure;Samples;Min_cycle;Max_cycle;Signal;HPM_P1;HPM_P2
2022/05/01 00:01:09;;;;;;;19.52;14.85;;;7.70;99.90;;;;;;5034223;28;20028;-77
2022/05/01 00:03:35;;;;;;;24.75;13.65;;;7.90;99.90;;;;;;5052336;28;20029;-77
2022/05/01 00:06:05;;;;;;;24.83;16.25;;;7.90;99.90;;;;;;5052632;28;20033;-77
2022/05/01 00:08:31;;;;;;;25.40;13.82;;;7.90;99.90;;;;;;5052023;28;20033;-77
2022/05/01 00:10:57;;;;;;;19.77;13.63;;;7.80;99.90;;;;;;5052215;28;20071;-76
2022/05/01 00:13:24;;;;;;;20.23;13.00;;;7.80;99.90;;;;;;5018086;28;20381;-77
2022/05/01 00:15:50;;;;;;;23.63;13.48;;;7.70;99.90;;;;;;5052413;28;20032;-76
2022/05/01 00:18:16;;;;;;;22.83;15.30;;;7.50;99.90;;;;;;5035125;28;20035;-74
2022/05/01 00:20:42;;;;;;;23.77;14.00;;;7.20;99.90;;;;;;5052548;28;20378;-77
2022/05/01 00:23:08;;;;;;;20.63;14.35;;;7.10;99.90;;;;;;5052248;28;20037;-77
2022/05/01 00:25:34;;;;;;;24.13;13.57;;;7.30;99.90;;;;;;5052505;28;20021;-77
2022/05/01 00:28:00;;;;;;;23.58;15.10;;;7.40;99.90;;;;;;5051987;28;20469;-77
2022/05/01 00:30:26;;;;;;;25.23;15.63;;;6.90;99.90;;;;;;5052107;28;20359;-76
2022/05/01 00:38:27;;;;;;;25.00;15.57;;;6.30;99.90;;;;;;5051831;28;20029;-77
2022/05/01 00:40:54;;;;;;;26.38;16.42;;;6.30;99.90;;;;;;5052162;28;20385;-77
2022/05/01 00:43:20;;;;;;;28.50;17.27;;;6.50;99.90;;;;;;5034371;28;20036;-77
2022/05/01 00:45:45;;;;;;;26.90;17.17;;;6.60;99.90;;;;;;5052079;28;20025;-77
2022/05/01 00:48:11;;;;;;;30.88;17.25;;;6.70;99.90;;;;;;5051986;28;20397;-77
2022/05/01 00:50:37;;;;;;;29.88;17.35;;;6.70;99.90;;;;;;5034488;28;20037;-78
2022/05/01 00:53:05;;;;;;;21.17;16.33;;;6.70;99.90;;;;;;5051440;28;20029;-77
2022/05/01 00:55:36;;;;;;;26.08;16.95;;;6.90;99.90;;;;;;5051899;28;20029;-77
2022/05/01 00:58:03;;;;;;;31.15;16.70;;;6.80;99.90;;;;;;5051253;28;20033;-77
2022/05/01 01:00:29;;;;;;;28.42;18.00;;;6.80;99.90;;;;;;5051821;28;20059;-77
2022/05/01 01:02:55;;;;;;;27.10;18.17;;;6.60;99.90;;;;;;5052628;28;20470;-77
2022/05/01 01:05:21;;;;;;;30.90;17.98;;;6.60;99.90;;;;;;5037872;28;20029;-77
2022/05/01 01:07:47;;;;;;;25.52;18.15;;;6.50;99.90;;;;;;5055517;28;20427;-77
2022/05/01 01:10:13;;;;;;;30.02;17.42;;;6.40;99.90;;;;;;5055786;28;20105;-77
2022/05/01 01:12:55;;;;;;;31.48;17.80;;;6.20;99.90;;;;;;5055189;28;20045;-77
2022/05/01 01:15:31;;;;;;;28.10;18.33;;;6.30;99.90;;;;;;5055658;28;20044;-77
2022/05/01 01:17:58;;;;;;;29.00;17.88;;;6.40;99.90;;;;;;5055516;28;20064;-77
2022/05/01 01:20:36;;;;;;;23.75;16.40;;;6.50;99.90;;;;;;5055338;28;20079;-77
2022/05/01 01:23:03;;;;;;;28.15;17.38;;;6.70;99.90;;;;;;5037337;28;20051;-76
2022/05/01 01:25:31;;;;;;;22.85;16.55;;;6.90;99.90;;;;;;5055418;28;20029;-77
2022/05/01 01:28:02;;;;;;;26.63;17.02;;;6.80;99.90;;;;;;5054995;28;20358;-76
2022/05/01 01:33:15;;;;;;;28.25;17.70;;;6.90;99.90;;;;;;5054694;28;20028;-77
2022/05/01 01:35:41;;;;;;;27.27;18.65;;;7.00;99.90;;;;;;5054923;28;20108;-76
2022/05/01 01:38:07;;;;;;;27.67;18.08;;;7.10;99.90;;;;;;5054424;28;20127;-76
2022/05/01 01:41:03;;;;;;;29.67;19.77;;;7.10;99.90;;;;;;5051300;28;20017;-77
2022/05/01 01:43:29;;;;;;;31.27;19.05;;;7.30;99.90;;;;;;5029640;28;20084;-75
2022/05/01 01:45:56;;;;;;;24.98;18.67;;;6.80;99.90;;;;;;5046821;28;20029;-76
2022/05/01 01:48:23;;;;;;;28.75;17.55;;;6.70;99.90;;;;;;5063032;28;20083;-77
2022/05/01 01:50:56;;;;;;;28.40;17.95;;;6.80;99.90;;;;;;5053524;28;20087;-77
2022/05/01 01:53:22;;;;;;;30.23;18.25;;;7.00;99.90;;;;;;5054778;28;20025;-77
2022/05/01 01:55:48;;;;;;;31.63;19.38;;;6.80;99.90;;;;;;5054337;28;20462;-76
2022/05/01 01:58:14;;;;;;;36.55;19.77;;;6.40;99.90;;;;;;5054058;28;20048;-77
2022/05/01 02:00:39;;;;;;;25.70;17.45;;;6.60;99.90;;;;;;5054482;28;20029;-77
2022/05/01 02:03:05;;;;;;;25.30;17.65;;;6.60;99.90;;;;;;5054000;28;20094;-75
2022/05/01 02:05:33;;;;;;;26.30;17.20;;;6.70;99.90;;;;;;5054280;28;20029;-77
2022/05/01 02:08:00;;;;;;;28.55;17.17;;;6.70;99.90;;;;;;5054457;28;20037;-78
2022/05/01 02:10:26;;;;;;;26.42;16.20;;;6.70;99.90;;;;;;5054887;28;20029;-77
2022/05/01 02:12:52;;;;;;;24.90;17.10;;;6.60;99.90;;;;;;5036862;28;20485;-77
2022/05/01 02:15:18;;;;;;;28.70;16.73;;;6.70;99.90;;;;;;5054152;28;20040;-77
2022/05/01 02:17:45;;;;;;;25.75;17.40;;;6.60;99.90;;;;;;5054454;28;20028;-77
2022/05/01 02:20:11;;;;;;;29.92;17.92;;;6.40;99.90;;;;;;5036473;28;20033;-77
2022/05/01 02:22:40;;;;;;;30.60;16.67;;;6.40;99.90;;;;;;5054335;28;20044;-76
2022/05/01 02:25:10;;;;;;;27.10;17.77;;;6.30;99.90;;;;;;5054196;28;20025;-77
2022/05/01 02:27:37;;;;;;;27.98;17.85;;;6.30;99.90;;;;;;5054244;28;20033;-77
2022/05/01 02:30:05;;;;;;;22.95;16.95;;;6.40;99.90;;;;;;5054220;28;20052;-77
2022/05/01 02:32:31;;;;;;;22.17;16.40;;;6.30;99.90;;;;;;5036008;28;20021;-77
2022/05/01 02:34:56;;;;;;;27.13;16.38;;;6.20;99.90;;;;;;5053916;28;20029;-76
2022/05/01 02:37:22;;;;;;;23.02;17.35;;;5.90;99.90;;;;;;5053719;28;20029;-78
2022/05/01 02:39:48;;;;;;;27.15;17.45;;;5.80;99.90;;;;;;5053781;28;20096;-77
2022/05/01 02:42:13;;;;;;;28.88;17.70;;;6.00;99.90;;;;;;5035973;28;20474;-77
2022/05/01 02:44:39;;;;;;;26.55;17.52;;;6.20;99.90;;;;;;5053938;28;20116;-76
2022/05/01 02:47:05;;;;;;;26.52;17.33;;;6.20;99.90;;;;;;5053251;28;20031;-76
2022/05/01 02:49:32;;;;;;;28.13;17.67;;;6.20;99.90;;;;;;5053602;28;20386;-77
2022/05/01 02:51:58;;;;;;;27.50;17.92;;;5.80;99.90;;;;;;5053608;28;20033;-77
2022/05/01 02:54:24;;;;;;;28.70;18.00;;;5.50;99.90;;;;;;5053300;28;20098;-76
2022/05/01 02:56:52;;;;;;;29.60;17.50;;;5.60;99.90;;;;;;5052131;28;20082;-74
2022/05/01 02:59:18;;;;;;;21.95;16.73;;;5.90;99.90;;;;;;5035241;28;20020;-76
2022/05/01 03:01:44;;;;;;;29.48;17.88;;;6.00;99.90;;;;;;5053146;28;20426;-75
2022/05/01 03:04:10;;;;;;;23.58;17.55;;;5.90;99.90;;;;;;5053238;28;20440;-77
2022/05/01 03:06:36;;;;;;;28.60;16.55;;;6.00;99.90;;;;;;5053772;28;20102;-77
2022/05/01 03:09:03;;;;;;;25.55;17.35;;;5.80;99.90;;;;;;5053846;28;20100;-76
2022/05/01 03:11:32;;;;;;;26.67;18.45;;;5.60;99.90;;;;;;5053257;28;20469;-78
2022/05/01 03:13:58;;;;;;;30.02;18.35;;;5.70;99.90;;;;;;5053607;28;20485;-77
2022/05/01 03:16:24;;;;;;;28.15;18.35;;;5.70;99.90;;;;;;5053167;28;20043;-76
2022/05/01 03:24:18;;;;;;;29.23;19.05;;;6.00;99.90;;;;;;5052904;28;20037;-78
2022/05/01 03:26:47;;;;;;;28.00;17.88;;;5.50;99.90;;;;;;5052602;28;20378;-75
2022/05/01 03:29:14;;;;;;;30.17;19.40;;;5.60;99.90;;;;;;5052816;28;20044;-76
2022/05/01 03:31:40;;;;;;;24.42;18.02;;;5.70;99.90;;;;;;5052791;28;20041;-77
2022/05/01 03:34:06;;;;;;;27.85;18.25;;;5.70;99.90;;;;;;5052787;28;20036;-77
2022/05/01 03:36:32;;;;;;;28.13;19.33;;;5.70;99.90;;;;;;5052923;28;20037;-77
2022/05/01 03:38:59;;;;;;;28.05;19.98;;;5.70;99.90;;;;;;5034798;28;20029;-77
2022/05/01 03:41:26;;;;;;;30.08;20.45;;;5.60;99.90;;;;;;5052835;28;20453;-78
2022/05/01 03:43:52;;;;;;;37.40;23.92;;;5.60;99.90;;;;;;5052614;28;20112;-78
2022/05/01 03:46:22;;;;;;;34.60;21.35;;;5.90;99.90;;;;;;5052152;28;20553;-78
2022/05/01 03:48:48;;;;;;;36.17;22.45;;;6.10;99.90;;;;;;5052536;28;20051;-75
2022/05/01 03:51:14;;;;;;;34.92;23.10;;;6.10;99.90;;;;;;5052296;28;20115;-78
2022/05/01 03:53:39;;;;;;;33.83;20.77;;;6.10;99.90;;;;;;5052711;28;20029;-77
2022/05/01 03:56:05;;;;;;;37.00;20.38;;;6.10;99.90;;;;;;5052674;28;20087;-76
2022/05/01 03:58:31;;;;;;;29.65;20.83;;;6.20;99.90;;;;;;5034329;28;20025;-76
2022/05/01 04:00:58;;;;;;;31.48;19.67;;;6.20;99.90;;;;;;5051830;28;20033;-78
2022/05/01 04:03:25;;;;;;;30.17;20.70;;;6.20;99.90;;;;;;5052295;28;20032;-75
2022/05/01 04:05:52;;;;;;;33.58;20.88;;;5.80;99.90;;;;;;5052788;28;20061;-76
2022/05/01 04:08:18;;;;;;;31.80;21.05;;;5.50;99.90;;;;;;5052560;28;20025;-78
2022/05/01 04:10:46;;;;;;;28.60;20.50;;;5.70;99.90;;;;;;5052536;28;20082;-76
2022/05/01 04:13:12;;;;;;;34.55;21.80;;;5.90;99.90;;;;;;5052307;28;20013;-75
2022/05/01 04:15:39;;;;;;;30.92;19.95;;;6.00;99.90;;;;;;5052247;28;20102;-77
2022/05/01 04:18:06;;;;;;;28.17;20.40;;;6.00;99.90;;;;;;5052698;28;20100;-75
2022/05/01 04:20:37;;;;;;;33.20;20.60;;;5.70;99.90;;;;;;5052380;28;20389;-77
2022/05/01 04:23:06;;;;;;;34.05;20.67;;;5.60;99.90;;;;;;5052296;28;20029;-77
2022/05/01 04:25:33;;;;;;;35.95;21.35;;;5.60;99.90;;;;;;5052507;28;20385;-77
2022/05/01 04:28:05;;;;;;;32.25;21.30;;;5.70;99.90;;;;;;5052328;28;20370;-77
2022/05/01 04:30:31;;;;;;;31.88;20.35;;;5.70;99.90;;;;;;5034054;28;20029;-77
2022/05/01 04:33:00;;;;;;;30.50;21.58;;;5.70;99.90;;;;;;5051794;28;20032;-77
2022/05/01 04:35:34;;;;;;;29.10;20.05;;;5.70;99.90;;;;;;5051981;28;20029;-77
2022/05/01 04:38:02;;;;;;;30.42;20.38;;;5.50;99.90;;;;;;5054970;28;20593;-77
2022/05/01 04:40:29;;;;;;;32.42;20.88;;;5.60;99.90;;;;;;5056185;28;20028;-78
2022/05/01 04:43:03;;;;;;;27.80;20.52;;;5.70;99.90;;;;;;5038212;28;20045;-78
2022/05/01 04:45:30;;;;;;;32.95;19.85;;;5.80;99.90;;;;;;5056031;28;20053;-77
2022/05/01 04:47:57;;;;;;;24.27;18.35;;;5.80;99.90;;;;;;5055941;28;20428;-78
2022/05/01 04:50:23;;;;;;;27.00;19.98;;;5.80;99.90;;;;;;5055850;28;20028;-78
2022/05/01 04:52:49;;;;;;;30.42;20.42;;;6.00;99.90;;;;;;5037944;28;20032;-78
2022/05/01 04:55:15;;;;;;;28.42;20.77;;;6.10;99.90;;;;;;5037425;28;20036;-78
2022/05/01 04:57:41;;;;;;;31.27;19.45;;;6.10;99.90;;;;;;5055226;28;20033;-78
2022/05/01 05:00:07;;;;;;;29.42;19.42;;;6.20;99.90;;;;;;5055582;28;20029;-78
2022/05/01 05:02:42;;;;;;;30.70;20.58;;;6.20;99.90;;;;;;5055044;28;20076;-77
2022/05/01 05:05:10;;;;;;;29.67;19.38;;;6.40;99.90;;;;;;5055624;28;20028;-78
2022/05/01 05:07:39;;;;;;;27.38;20.83;;;6.50;99.90;;;;;;5056049;28;20533;-77
2022/05/01 05:10:08;;;;;;;26.83;19.45;;;6.70;99.90;;;;;;5055757;28;20074;-78
2022/05/01 05:12:35;;;;;;;39.55;21.80;;;6.80;99.90;;;;;;5055448;28;20037;-78
2022/05/01 05:15:09;;;;;;;31.15;21.35;;;6.90;99.90;;;;;;5055913;28;20071;-78
2022/05/01 05:17:36;;;;;;;28.92;20.08;;;7.00;99.90;;;;;;5055933;28;20060;-78
2022/05/01 05:20:04;;;;;;;34.15;22.35;;;7.10;99.90;;;;;;5055580;28;20078;-78
2022/05/01 05:22:30;;;;;;;30.90;20.52;;;7.20;99.90;;;;;;5055506;28;20059;-77
2022/05/01 05:24:56;;;;;;;27.50;21.58;;;7.20;99.90;;;;;;5055665;28;20028;-78
2022/05/01 05:27:25;;;;;;;34.72;22.58;;;7.40;99.90;;;;;;5055165;28;20362;-78
2022/05/01 05:29:55;;;;;;;29.10;21.75;;;7.50;99.90;;;;;;5055525;28;20051;-77
2022/05/01 05:32:22;;;;;;;36.03;23.75;;;6.90;99.90;;;;;;5054875;28;20067;-77
2022/05/01 05:34:48;;;;;;;40.83;24.98;;;7.10;99.90;;;;;;5055034;28;20489;-76
2022/05/01 05:37:15;;;;;;;36.53;25.63;;;7.50;99.90;;;;;;5055199;28;20386;-78
2022/05/01 05:39:41;;;;;;;41.30;27.10;;;7.60;99.90;;;;;;5036581;28;20462;-78
2022/05/01 05:42:08;;;;;;;41.03;27.17;;;7.40;99.90;;;;;;5054787;28;20124;-78
2022/05/01 05:44:33;;;;;;;39.08;26.95;;;7.90;99.90;;;;;;5054934;28;20416;-78
2022/05/01 05:46:59;;;;;;;37.30;25.95;;;7.90;99.90;;;;;;5037130;28;20218;-79
2022/05/01 05:49:25;;;;;;;38.72;26.92;;;7.70;99.90;;;;;;5053627;28;20499;-78
2022/05/01 05:51:51;;;;;;;42.65;27.88;;;7.70;99.90;;;;;;5054397;28;20028;-78
2022/05/01 05:54:19;;;;;;;44.78;28.13;;;7.90;99.90;;;;;;5054827;28;20025;-78
2022/05/01 05:56:45;;;;;;;41.00;27.00;;;7.70;99.90;;;;;;5054340;28;20502;-78
2022/05/01 05:59:11;;;;;;;50.53;29.42;;;7.90;99.90;;;;;;5054484;28;20025;-78
2022/05/01 06:01:37;;;;;;;47.30;30.52;;;8.40;99.90;;;;;;5054845;28;20032;-78
2022/05/01 06:04:04;;;;;;;47.30;29.83;;;8.60;99.90;;;;;;5054786;28;20401;-78
2022/05/01 06:06:30;;;;;;;46.95;28.05;;;8.60;99.90;;;;;;5054600;28;20219;-78
2022/05/01 06:08:56;;;;;;;44.47;28.85;;;8.50;99.90;;;;;;5054497;28;20033;-78
2022/05/01 06:11:22;;;;;;;44.25;29.63;;;8.20;99.90;;;;;;5054485;28;20039;-78
2022/05/01 06:13:47;;;;;;;42.10;28.60;;;8.10;99.90;;;;;;5054290;28;20025;-78
2022/05/01 06:16:13;;;;;;;48.47;30.42;;;8.20;99.90;;;;;;5054550;28;20029;-78
2022/05/01 06:18:39;;;;;;;53.92;31.00;;;8.10;99.90;;;;;;5056643;28;20036;-78
2022/05/01 06:21:05;;;;;;;47.53;30.25;;;8.20;99.90;;;;;;5056613;28;20031;-78
2022/05/01 06:23:30;;;;;;;44.40;29.02;;;8.30;99.90;;;;;;5073999;28;20044;-78
2022/05/01 06:25:56;;;;;;;44.25;30.25;;;8.50;99.90;;;;;;5056478;28;20087;-77
2022/05/01 06:28:22;;;;;;;50.63;33.20;;;8.60;99.90;;;;;;5073958;28;20016;-78
2022/05/01 06:30:52;;;;;;;53.78;35.25;;;8.90;99.90;;;;;;5073624;28;20071;-78
2022/05/01 06:33:21;;;;;;;44.20;29.58;;;9.40;99.90;;;;;;5073894;28;20025;-78
2022/05/01 06:35:52;;;;;;;46.30;29.80;;;9.30;99.90;;;;;;5074015;28;20017;-77
2022/05/01 06:38:18;;;;;;;48.55;30.73;;;9.10;99.90;;;;;;5073685;28;20037;-77
2022/05/01 06:40:46;;;;;;;43.95;28.52;;;9.00;99.90;;;;;;5073519;28;20024;-77
2022/05/01 06:43:12;;;;;;;47.92;30.45;;;9.10;99.90;;;;;;5039386;28;20060;-77
2022/05/01 06:45:38;;;;;;;45.22;30.27;;;9.10;99.90;;;;;;5068931;28;20020;-77
2022/05/01 06:48:04;;;;;;;46.60;31.63;;;9.10;99.90;;;;;;5039508;28;20417;-77
2022/05/01 06:50:30;;;;;;;40.22;28.77;;;9.10;99.90;;;;;;5051257;28;20107;-76
2022/05/01 06:52:57;;;;;;;48.95;31.52;;;9.30;99.90;;;;;;5051860;28;20021;-74
2022/05/01 06:55:26;;;;;;;43.35;29.63;;;9.40;99.90;;;;;;5048202;28;20138;-76
2022/05/01 06:57:55;;;;;;;49.28;32.28;;;9.50;99.90;;;;;;5052212;28;20124;-76
2022/05/01 07:00:22;;;;;;;49.22;31.75;;;9.90;99.90;;;;;;5048542;28;20499;-74
2022/05/01 07:02:49;;;;;;;47.03;29.50;;;10.00;99.90;;;;;;5037294;28;20056;-77
2022/05/01 07:05:17;;;;;;;45.85;29.33;;;10.10;99.90;;;;;;5051365;28;20041;-77
2022/05/01 07:07:43;;;;;;;50.67;30.75;;;10.30;99.90;;;;;;5044310;28;20500;-76
2022/05/01 07:10:09;;;;;;;50.15;31.05;;;10.50;99.90;;;;;;5042248;28;20040;-77
2022/05/01 07:12:35;;;;;;;51.55;30.33;;;10.50;99.90;;;;;;5034471;28;20499;-76
2022/05/01 07:15:02;;;;;;;46.92;30.30;;;10.40;99.90;;;;;;5052261;28;20033;-77
2022/05/01 07:17:27;;;;;;;45.33;30.40;;;10.20;99.90;;;;;;5041566;28;20103;-76
2022/05/01 07:19:53;;;;;;;48.38;31.88;;;10.30;99.90;;;;;;5052381;28;20111;-77
2022/05/01 07:22:19;;;;;;;49.75;30.90;;;10.20;99.90;;;;;;5051919;28;20036;-77
2022/05/01 07:24:45;;;;;;;49.25;30.48;;;10.10;99.90;;;;;;5051800;28;20014;-77
2022/05/01 07:27:11;;;;;;;46.22;28.40;;;10.20;99.90;;;;;;5052108;28;20032;-77
2022/05/01 07:29:37;;;;;;;41.10;27.35;;;10.40;99.90;;;;;;5051014;28;20036;-76
2022/05/01 07:32:03;;;;;;;43.17;25.20;;;10.40;99.90;;;;;;5033622;28;20064;-76
2022/05/01 07:34:29;;;;;;;46.25;28.05;;;10.50;99.90;;;;;;5052050;28;20025;-77
2022/05/01 07:36:55;;;;;;;41.42;27.10;;;10.90;99.90;;;;;;5031203;28;20036;-75
2022/05/01 07:39:21;;;;;;;43.35;28.73;;;10.90;99.90;;;;;;5016911;28;20021;-77
2022/05/01 07:41:47;;;;;;;38.38;27.58;;;11.10;99.90;;;;;;5052239;28;20386;-76
2022/05/01 07:44:12;;;;;;;45.22;28.13;;;11.50;99.90;;;;;;5052575;28;20020;-77
2022/05/01 07:46:39;;;;;;;45.10;27.10;;;11.50;99.90;;;;;;5052151;28;20021;-77
2022/05/01 07:49:06;;;;;;;37.78;25.88;;;11.60;99.90;;;;;;5034648;28;20025;-75
2022/05/01 07:51:32;;;;;;;40.63;24.73;;;12.00;99.90;;;;;;5048723;28;20071;-76
2022/05/01 07:53:58;;;;;;;38.10;24.48;;;12.00;99.90;;;;;;5047425;28;20020;-77
2022/05/01 07:56:28;;;;;;;33.60;22.23;;;11.90;99.90;;;;;;5051802;28;20024;-77
2022/05/01 07:58:54;;;;;;;30.70;20.92;;;11.90;99.90;;;;;;5050477;28;20021;-78
2022/05/01 08:01:21;;;;;;;28.98;21.27;;;12.30;99.90;;;;;;5051292;28;20379;-77
2022/05/01 08:06:30;;;;;;;26.55;19.38;;;13.00;99.90;;;;;;5041507;28;20549;-77
2022/05/01 08:08:56;;;;;;;29.90;18.63;;;13.30;99.90;;;;;;5045783;28;20144;-77
2022/05/01 08:11:22;;;;;;;34.78;19.55;;;13.40;99.90;;;;;;5050291;28;20111;-77
2022/05/01 08:13:48;;;;;;;33.47;18.88;;;13.40;99.90;;;;;;5051654;28;20070;-76
2022/05/01 08:16:14;;;;;;;27.08;18.48;;;13.40;99.90;;;;;;5052005;28;20112;-78
2022/05/01 08:21:25;;;;;;;24.95;15.05;;;13.50;99.90;;;;;;5033491;28;20098;-75
2022/05/01 08:23:52;;;;;;;20.02;13.43;;;13.30;99.90;;;;;;5033986;28;20088;-75
2022/05/01 08:26:18;;;;;;;22.80;13.25;;;13.50;99.90;;;;;;5050491;28;20021;-76
2022/05/01 08:28:45;;;;;;;20.13;13.75;;;13.30;99.90;;;;;;5049216;28;20031;-75
2022/05/01 08:31:11;;;;;;;24.38;13.98;;;13.20;99.90;;;;;;5051849;28;20025;-75
2022/05/01 08:33:39;;;;;;;20.55;13.40;;;13.20;99.90;;;;;;5051767;28;20029;-74
2022/05/01 08:36:06;;;;;;;18.20;11.10;;;13.50;99.90;;;;;;5051929;28;20468;-76
2022/05/01 08:38:32;;;;;;;22.63;12.77;;;13.60;99.90;;;;;;5052283;28;20075;-75
2022/05/01 08:40:58;;;;;;;17.00;11.25;;;13.60;99.90;;;;;;5051942;28;20079;-75
2022/05/01 08:43:25;;;;;;;16.13;10.73;;;13.80;99.90;;;;;;5052241;28;20420;-73
2022/05/01 08:45:54;;;;;;;17.15;11.85;;;14.20;99.90;;;;;;5052189;28;20021;-75
2022/05/01 08:48:34;;;;;;;21.80;13.52;;;14.50;99.90;;;;;;5040232;28;20192;-74
2022/05/01 08:51:01;;;;;;;15.30;10.77;;;14.70;99.90;;;;;;5032033;28;20072;-75
2022/05/01 08:53:29;;;;;;;17.58;12.60;;;15.10;99.70;;;;;;5031010;28;20025;-76
2022/05/01 08:55:55;;;;;;;16.77;12.02;;;15.10;99.80;;;;;;5032182;28;20079;-75
2022/05/01 08:58:23;;;;;;;19.02;11.25;;;15.30;99.20;;;;;;5032656;28;20049;-76
2022/05/01 09:00:51;;;;;;;14.70;9.40;;;15.40;98.90;;;;;;5033731;28;20470;-74
2022/05/01 09:03:18;;;;;;;12.18;8.52;;;15.00;97.80;;;;;;5046190;28;20430;-75
2022/05/01 09:05:44;;;;;;;12.40;8.10;;;15.40;97.50;;;;;;5042761;28;20029;-75
2022/05/01 09:08:10;;;;;;;13.40;9.27;;;15.30;95.40;;;;;;5041093;28;20045;-75
2022/05/01 09:10:40;;;;;;;12.45;8.95;;;14.90;97.50;;;;;;5049886;28;20109;-76
2022/05/01 09:13:07;;;;;;;15.10;10.15;;;14.90;98.50;;;;;;5051139;28;20099;-76
2022/05/01 09:15:36;;;;;;;15.27;10.43;;;14.50;98.20;;;;;;5010834;28;20121;-75
2022/05/01 09:18:09;;;;;;;11.02;9.02;;;14.10;99.90;;;;;;5041485;28;20025;-76
2022/05/01 09:20:39;;;;;;;11.77;9.38;;;14.50;98.50;;;;;;5036550;28;20017;-76
2022/05/01 09:23:06;;;;;;;13.23;9.10;;;14.30;98.20;;;;;;5014480;28;20140;-76
2022/05/01 09:25:33;;;;;;;15.32;9.15;;;14.40;99.20;;;;;;5043413;28;20028;-76
2022/05/01 09:28:17;;;;;;;11.35;8.27;;;14.80;97.90;;;;;;5054360;28;20090;-76
2022/05/01 09:30:45;;;;;;;14.90;8.82;;;15.20;96.70;;;;;;5036536;28;20024;-76
2022/05/01 09:33:19;;;;;;;16.35;7.65;;;15.70;95.50;;;;;;5036522;28;20055;-76
2022/05/01 09:35:45;;;;;;;16.10;9.18;;;15.90;94.20;;;;;;5055305;28;20024;-76
2022/05/01 09:38:18;;;;;;;12.15;7.20;;;16.50;94.00;;;;;;5037170;28;20036;-75
2022/05/01 09:40:49;;;;;;;14.35;7.15;;;16.20;93.60;;;;;;5055495;28;20556;-74
2022/05/01 09:43:43;;;;;;;8.30;5.50;;;16.00;94.20;;;;;;5055411;28;20460;-75
2022/05/01 09:46:19;;;;;;;11.05;6.90;;;16.20;92.70;;;;;;5036493;28;20029;-75
2022/05/01 09:49:05;;;;;;;9.48;6.70;;;16.70;92.70;;;;;;5046821;28;20025;-75
2022/05/01 09:51:39;;;;;;;13.13;7.07;;;17.00;93.30;;;;;;5051252;28;20051;-76
2022/05/01 09:54:06;;;;;;;11.30;7.72;;;16.60;92.80;;;;;;5034540;28;20025;-75
2022/05/01 09:56:46;;;;;;;11.98;7.75;;;16.10;93.60;;;;;;5023959;28;20033;-75
2022/05/01 09:59:13;;;;;;;12.60;8.30;;;16.10;93.50;;;;;;5053111;28;20016;-75
2022/05/01 10:01:40;;;;;;;13.88;7.43;;;16.10;93.00;;;;;;5045365;28;20040;-75
2022/05/01 10:04:07;;;;;;;12.82;7.97;;;15.60;93.50;;;;;;5053291;28;20492;-74
2022/05/01 10:06:33;;;;;;;10.00;8.30;;;15.40;93.10;;;;;;5054641;28;20511;-75
2022/05/01 10:09:01;;;;;;;13.60;7.43;;;15.60;93.40;;;;;;5053775;28;20075;-77
2022/05/01 10:11:29;;;;;;;10.85;7.13;;;15.40;93.00;;;;;;5053865;28;20022;-76
2022/05/01 10:13:55;;;;;;;9.95;7.68;;;15.00;93.70;;;;;;5053634;28;20040;-76
2022/05/01 10:16:21;;;;;;;11.13;6.95;;;14.70;93.90;;;;;;5053540;28;20108;-75
2022/05/01 10:18:47;;;;;;;10.98;7.55;;;14.60;94.40;;;;;;5045139;28;20470;-78
2022/05/01 10:21:13;;;;;;;15.35;7.53;;;14.70;94.90;;;;;;5050457;28;20017;-78
2022/05/01 10:23:40;;;;;;;12.07;7.82;;;15.10;94.50;;;;;;5054028;28;20554;-77
2022/05/01 10:26:06;;;;;;;14.50;7.55;;;15.40;93.90;;;;;;5038319;28;20029;-76
2022/05/01 10:28:45;;;;;;;10.38;7.38;;;15.70;94.00;;;;;;5037879;28;20075;-76
2022/05/01 10:34:32;;;;;;;10.48;7.53;;;15.80;92.60;;;;;;5044913;28;20117;-75
2022/05/01 10:37:28;;;;;;;10.05;6.90;;;16.10;92.20;;;;;;5042403;28;20466;-76
2022/05/01 10:39:55;;;;;;;12.38;6.25;;;17.10;92.20;;;;;;5035579;28;20022;-76
2022/05/01 10:42:36;;;;;;;11.85;7.25;;;18.00;90.60;;;;;;5033496;28;20069;-77
2022/05/01 10:45:02;;;;;;;9.33;6.30;;;18.60;89.10;;;;;;5033993;28;20100;-76
2022/05/01 10:47:39;;;;;;;10.32;6.32;;;18.50;88.20;;;;;;5039009;28;20116;-76
2022/05/01 10:50:11;;;;;;;7.78;5.90;;;18.60;87.20;;;;;;5052010;28;20028;-77
2022/05/01 10:53:04;;;;;;;7.68;5.78;;;18.80;85.60;;;;;;5059078;28;20039;-77
2022/05/01 10:55:48;;;;;;;7.68;6.25;;;19.10;86.00;;;;;;5045708;28;20430;-76
2022/05/01 10:58:32;;;;;;;11.60;5.78;;;17.90;84.30;;;;;;5073364;28;20086;-77
2022/05/01 11:00:58;;;;;;;6.78;5.38;;;17.50;86.20;;;;;;5060893;28;20087;-77
2022/05/01 11:03:26;;;;;;;8.70;5.63;;;17.50;85.70;;;;;;5042423;28;20116;-77
2022/05/01 11:05:56;;;;;;;9.55;6.20;;;18.00;87.00;;;;;;5032563;28;20381;-77
2022/05/01 11:08:27;;;;;;;10.10;6.47;;;18.00;87.00;;;;;;5051643;28;20029;-77
2022/05/01 11:10:55;;;;;;;15.13;6.50;;;18.00;86.70;;;;;;5052441;28;20101;-77
2022/05/01 11:13:31;;;;;;;10.57;6.63;;;18.30;87.10;;;;;;5035237;28;20071;-77
2022/05/01 11:15:57;;;;;;;9.93;6.70;;;18.30;85.50;;;;;;5052959;28;20461;-74
2022/05/01 11:18:39;;;;;;;10.30;7.15;;;16.90;87.30;;;;;;5037057;28;20033;-77
2022/05/01 11:21:20;;;;;;;9.85;7.00;;;17.70;87.00;;;;;;5034528;28;20029;-77
2022/05/01 11:24:03;;;;;;;11.02;7.90;;;18.50;85.60;;;;;;5038334;28;20106;-76
2022/05/01 11:26:29;;;;;;;9.65;7.22;;;18.10;87.40;;;;;;5032966;28;20116;-74
2022/05/01 11:29:13;;;;;;;11.02;8.40;;;17.80;88.40;;;;;;5033124;28;20022;-78
2022/05/01 11:31:48;;;;;;;10.23;7.03;;;18.20;86.70;;;;;;5021545;28;20029;-77
2022/05/01 11:34:21;;;;;;;11.82;8.25;;;18.60;86.40;;;;;;5051987;28;20029;-78
2022/05/01 11:37:09;;;;;;;11.60;7.65;;;18.60;86.00;;;;;;5051284;28;20086;-78
2022/05/01 11:39:50;;;;;;;8.85;7.15;;;18.50;85.60;;;;;;5052864;28;20584;-77
2022/05/01 11:42:29;;;;;;;9.88;7.70;;;19.20;84.90;;;;;;5052730;28;20048;-77
2022/05/01 11:44:57;;;;;;;9.05;7.07;;;19.30;84.80;;;;;;5052497;28;20028;-77
2022/05/01 11:47:25;;;;;;;10.88;7.05;;;19.10;84.40;;;;;;5034281;28;20025;-77
2022/05/01 11:49:51;;;;;;;11.70;6.55;;;19.00;85.20;;;;;;5052932;28;20033;-76
2022/05/01 11:52:18;;;;;;;15.38;7.03;;;19.40;83.50;;;;;;5052320;28;20048;-77
2022/05/01 11:54:51;;;;;;;8.77;6.53;;;19.60;81.70;;;;;;5052304;28;20017;-78
2022/05/01 12:03:07;;;;;;;8.80;7.10;;;20.30;81.50;;;;;;5052109;28;20458;-77
2022/05/01 12:05:45;;;;;;;8.90;7.00;;;19.70;81.10;;;;;;5051808;28;20037;-78
2022/05/01 12:08:12;;;;;;;11.52;7.32;;;20.30;81.30;;;;;;5052489;28;20033;-77
2022/05/01 12:10:45;;;;;;;15.70;8.55;;;21.00;80.80;;;;;;5051793;28;20051;-78
2022/05/01 12:13:27;;;;;;;9.75;8.23;;;20.40;79.70;;;;;;5052413;28;20025;-77
2022/05/01 12:15:53;;;;;;;14.48;8.75;;;19.50;80.80;;;;;;5034850;28;20037;-77
2022/05/01 12:18:20;;;;;;;12.32;8.45;;;19.80;79.80;;;;;;5052593;28;20017;-77
2022/05/01 12:20:46;;;;;;;11.52;8.60;;;19.40;79.60;;;;;;5052505;28;20033;-76
2022/05/01 12:23:20;;;;;;;11.82;9.50;;;19.30;80.50;;;;;;5052475;28;20083;-76
2022/05/01 12:25:50;;;;;;;11.73;8.98;;;19.30;80.90;;;;;;5034477;28;20029;-76
2022/05/01 12:28:18;;;;;;;12.63;9.07;;;19.70;80.70;;;;;;5051914;28;20095;-76
2022/05/01 12:30:48;;;;;;;14.32;9.07;;;19.30;81.80;;;;;;5052057;28;20033;-76
2022/05/01 12:33:24;;;;;;;13.32;10.32;;;19.40;80.80;;;;;;5051795;28;20033;-76
2022/05/01 12:35:52;;;;;;;14.25;9.55;;;19.60;82.30;;;;;;5034527;28;20404;-76
2022/05/01 12:38:19;;;;;;;14.65;9.82;;;20.10;82.30;;;;;;5051913;28;20112;-76
2022/05/01 12:46:29;;;;;;;18.08;9.82;;;20.40;81.00;;;;;;5052103;28;20036;-77
2022/05/01 12:48:56;;;;;;;13.40;10.40;;;20.50;79.60;;;;;;5033981;28;20500;-76
2022/05/01 12:51:24;;;;;;;12.10;8.95;;;20.40;78.60;;;;;;5051638;28;20021;-76
2022/05/01 12:54:06;;;;;;;13.32;9.05;;;20.80;78.40;;;;;;5052177;28;20039;-76
2022/05/01 12:56:34;;;;;;;11.75;8.82;;;20.00;80.80;;;;;;5051398;28;20033;-77
2022/05/01 12:59:00;;;;;;;16.25;9.77;;;19.80;80.00;;;;;;5054890;28;20164;-76
2022/05/01 13:01:27;;;;;;;12.10;9.40;;;20.70;80.60;;;;;;5055624;28;20032;-77
2022/05/01 13:03:54;;;;;;;12.27;9.80;;;20.70;81.10;;;;;;5037988;28;20020;-76
2022/05/01 13:06:22;;;;;;;13.02;10.35;;;19.90;80.10;;;;;;5055808;28;20040;-76
2022/05/01 13:08:51;;;;;;;14.40;9.60;;;19.60;79.60;;;;;;5055278;28;20029;-77
2022/05/01 13:11:32;;;;;;;13.45;9.65;;;19.30;80.40;;;;;;5037749;28;20044;-76
2022/05/01 13:14:09;;;;;;;12.13;10.10;;;20.00;81.30;;;;;;5055706;28;20021;-77
2022/05/01 13:16:34;;;;;;;15.63;10.52;;;20.30;79.30;;;;;;5055730;28;20032;-77